Time;durP1;ratioP1;P1;durP2;ratioP2;P2;SDS_P1;SDS_P2;PMS_P1;PMS_P2;Temp;Humidity;BMP_temperature;BMP_pressure;BME280_temperature;BME280_humidity;BME280_pressure;Samples;Min_cycle;Max_cycle;Signal;HPM_P1;HPM_P2
2021/09/01 00:03:33;;;;;;;7.67;4.60;;;;;;;13.40;90.60;100996.97;5138016;57;21163;-86
2021/09/01 00:08:39;;;;;;;9.13;5.53;;;;;;;13.42;90.53;101005.67;5137862;57;21170;-86
2021/09/01 00:13:45;;;;;;;13.37;5.03;;;;;;;13.42;90.43;101007.00;5139828;57;21515;-85
2021/09/01 00:18:50;;;;;;;7.83;4.90;;;;;;;13.42;90.47;101005.67;5173555;57;21530;-86
2021/09/01 00:23:57;;;;;;;9.23;5.13;;;;;;;13.43;90.44;101008.69;5173572;57;21643;-87
2021/09/01 00:29:03;;;;;;;11.70;5.27;;;;;;;13.43;90.57;101011.34;5173546;57;21155;-86
2021/09/01 00:34:08;;;;;;;12.60;6.10;;;;;;;13.40;90.62;101014.24;5173609;57;21527;-85
2021/09/01 00:39:14;;;;;;;8.53;4.73;;;;;;;13.38;90.84;101021.48;5173533;57;21570;-86
2021/09/01 00:44:28;;;;;;;8.93;5.47;;;;;;;13.36;91.36;101018.95;5173873;57;21502;-86
2021/09/01 00:49:35;;;;;;;9.63;5.17;;;;;;;13.33;91.08;101014.37;5174164;57;21155;-85
2021/09/01 00:54:41;;;;;;;12.17;5.53;;;;;;;13.29;91.27;101009.78;5173930;57;21101;-86
2021/09/01 00:59:47;;;;;;;11.90;5.07;;;;;;;13.25;91.44;101015.00;5129519;57;21174;-85
2021/09/01 01:04:53;;;;;;;7.00;3.93;;;;;;;13.21;91.89;101012.23;5089588;58;21163;-86
2021/09/01 01:09:58;;;;;;;8.83;4.33;;;;;;;13.15;92.10;101019.34;5089527;58;21218;-86
2021/09/01 01:15:05;;;;;;;11.23;5.43;;;;;;;13.12;92.20;101014.28;5082911;57;21577;-86
2021/09/01 01:20:11;;;;;;;6.40;4.20;;;;;;;13.11;92.16;101015.24;5055116;58;21512;-87
2021/09/01 01:25:38;;;;;;;8.20;3.70;;;;;;;13.12;92.49;101016.94;5055713;58;21115;-86
2021/09/01 01:30:45;;;;;;;13.00;5.57;;;;;;;13.11;93.52;101017.05;5055635;58;21213;-87
2021/09/01 01:35:50;;;;;;;6.40;4.30;;;;;;;13.10;92.88;101025.50;5055545;58;21173;-85
2021/09/01 01:40:56;;;;;;;5.67;4.03;;;;;;;13.07;93.18;101019.10;5055559;58;21170;-85
2021/09/01 01:46:02;;;;;;;10.17;4.53;;;;;;;13.10;92.96;101029.97;5055451;58;21213;-86
2021/09/01 01:51:08;;;;;;;6.97;4.03;;;;;;;13.13;92.92;101032.38;5055461;58;21173;-85
2021/09/01 01:56:14;;;;;;;11.93;4.90;;;;;;;13.12;92.94;101041.31;5055590;58;21237;-84
2021/09/01 02:01:20;;;;;;;4.90;4.07;;;;;;;13.11;92.85;101047.59;5120895;58;21107;-86
2021/09/01 02:06:27;;;;;;;8.90;4.50;;;;;;;13.10;92.85;101049.41;5133826;58;21178;-86
2021/09/01 02:11:34;;;;;;;7.63;4.37;;;;;;;13.08;92.90;101046.50;5133819;58;21112;-85
2021/09/01 02:16:40;;;;;;;9.60;4.47;;;;;;;13.15;92.97;101056.53;5133668;57;21224;-86
2021/09/01 02:21:46;;;;;;;9.10;4.10;;;;;;;13.17;92.62;101063.05;5133813;58;21171;-86
2021/09/01 02:26:52;;;;;;;7.43;4.37;;;;;;;13.14;92.51;101073.91;5133796;58;22194;-86
2021/09/01 02:31:58;;;;;;;7.57;4.67;;;;;;;13.02;92.75;101069.91;5133938;58;21175;-85
2021/09/01 02:37:05;;;;;;;5.93;3.87;;;;;;;13.00;92.96;101074.49;5134543;58;21506;-86
2021/09/01 02:42:11;;;;;;;8.67;4.10;;;;;;;13.00;93.22;101073.65;5134263;58;21163;-85
2021/09/01 02:47:16;;;;;;;7.37;5.00;;;;;;;13.01;93.11;101076.19;5133689;58;21211;-86
2021/09/01 02:52:22;;;;;;;4.33;3.17;;;;;;;13.00;93.14;101077.15;5133746;58;21225;-86
2021/09/01 02:57:28;;;;;;;5.87;3.70;;;;;;;12.93;93.43;101073.30;5135366;57;21117;-86
2021/09/01 03:02:34;;;;;;;10.77;4.60;;;;;;;12.95;93.93;101071.86;5161492;57;21169;-86
2021/09/01 03:07:40;;;;;;;8.03;4.23;;;;;;;12.93;93.66;101078.62;5161457;57;21109;-85
2021/09/01 03:12:46;;;;;;;11.80;3.63;;;;;;;12.93;93.81;101084.41;5100413;57;21110;-87
2021/09/01 03:17:52;;;;;;;6.43;3.73;;;;;;;12.96;93.78;101096.12;5095709;57;21209;-87
2021/09/01 03:22:58;;;;;;;8.93;5.30;;;;;;;13.00;93.65;101092.23;5077890;58;21119;-86
2021/09/01 03:28:05;;;;;;;12.00;4.30;;;;;;;13.02;93.50;101096.95;5077821;58;21174;-86
2021/09/01 03:33:10;;;;;;;9.57;5.07;;;;;;;12.96;93.28;101097.45;5077788;58;21201;-86
2021/09/01 03:38:16;;;;;;;7.33;4.30;;;;;;;12.93;93.37;101093.70;5077871;58;22197;-85
2021/09/01 03:43:22;;;;;;;8.67;4.57;;;;;;;12.94;93.30;101101.55;5077922;58;21169;-86
2021/09/01 03:48:30;;;;;;;7.30;3.93;;;;;;;12.90;93.22;101100.09;5078041;58;21120;-86
2021/09/01 03:53:35;;;;;;;10.90;4.50;;;;;;;12.87;93.50;101100.80;5077809;58;21193;-86
2021/09/01 03:58:41;;;;;;;4.63;3.30;;;;;;;12.88;93.11;101113.11;5102056;57;21163;-85
2021/09/01 04:03:47;;;;;;;5.50;4.07;;;;;;;12.89;93.11;101107.69;5156642;57;21620;-86
2021/09/01 04:08:52;;;;;;;11.63;4.37;;;;;;;12.89;93.13;101120.96;5156752;57;21158;-85
2021/09/01 04:13:58;;;;;;;6.63;4.23;;;;;;;12.83;92.91;101116.11;5156721;57;21533;-86
2021/09/01 04:19:04;;;;;;;13.70;3.77;;;;;;;12.83;93.13;101124.59;5149096;57;21221;-86
2021/09/01 04:24:10;;;;;;;6.50;4.70;;;;;;;12.86;92.98;101129.16;5144142;57;21629;-86
2021/09/01 04:29:16;;;;;;;5.00;3.60;;;;;;;12.83;92.90;101137.86;5143756;57;21182;-86
2021/09/01 04:34:21;;;;;;;8.27;4.70;;;;;;;12.81;92.96;101145.94;5143399;57;21162;-86
2021/09/01 04:39:27;;;;;;;7.90;4.30;;;;;;;12.82;92.91;101145.47;5143373;57;22088;-85
2021/09/01 04:44:33;;;;;;;9.20;4.40;;;;;;;12.80;92.95;101157.52;5137071;57;21245;-85
2021/09/01 04:49:39;;;;;;;7.13;3.90;;;;;;;12.80;93.03;101155.34;5132904;57;21269;-85
2021/09/01 04:54:45;;;;;;;9.80;4.80;;;;;;;12.77;93.06;101159.56;5132481;57;21731;-86
2021/09/01 04:59:50;;;;;;;8.97;4.90;;;;;;;12.74;93.14;101163.77;5135719;57;21191;-86
2021/09/01 05:04:56;;;;;;;9.97;5.23;;;;;;;12.73;93.25;101168.23;5137773;57;21574;-85
2021/09/01 05:10:02;;;;;;;7.63;3.93;;;;;;;12.69;93.47;101182.20;5137918;57;21204;-85
2021/09/01 05:15:08;;;;;;;8.77;4.33;;;;;;;12.73;93.73;101181.50;5137981;57;21444;-86
2021/09/01 05:20:15;;;;;;;6.47;3.30;;;;;;;12.77;94.03;101188.28;5145398;57;21204;-86
2021/09/01 05:25:20;;;;;;;6.60;4.40;;;;;;;12.79;94.47;101194.32;5047054;57;21193;-85
2021/09/01 05:30:28;;;;;;;6.20;4.00;;;;;;;12.79;94.59;101195.65;5045259;58;21213;-85
2021/09/01 05:35:34;;;;;;;8.27;4.03;;;;;;;12.82;95.16;101187.94;5044839;58;21351;-86
2021/09/01 05:40:41;;;;;;;6.17;3.60;;;;;;;12.91;95.56;101196.52;5044651;58;21213;-85
2021/09/01 05:45:50;;;;;;;9.60;4.73;;;;;;;13.01;95.93;101204.13;5041821;58;21153;-84
2021/09/01 05:50:59;;;;;;;7.60;4.23;;;;;;;13.05;95.76;101192.31;5042667;58;21237;-85
2021/09/01 05:56:20;;;;;;;4.97;3.40;;;;;;;13.14;95.97;101182.29;5043231;58;21187;-83
2021/09/01 06:01:36;;;;;;;9.17;4.27;;;;;;;13.28;96.37;101186.59;5026173;58;21196;-82
2021/09/01 06:06:49;;;;;;;5.90;3.50;;;;;;;13.41;96.28;101190.45;5027251;59;21204;-80
2021/09/01 06:11:57;;;;;;;9.40;3.57;;;;;;;13.56;96.35;101202.53;5034229;59;21227;-84
2021/09/01 06:17:02;;;;;;;6.13;4.13;;;;;;;13.65;96.35;101210.61;5034282;59;21277;-81
2021/09/01 06:22:08;;;;;;;6.80;3.50;;;;;;;13.77;96.42;101209.26;5034178;58;21148;-81
2021/09/01 06:27:14;;;;;;;7.23;3.87;;;;;;;14.00;97.19;101206.45;5034079;59;21200;-83
2021/09/01 06:32:20;;;;;;;4.57;2.50;;;;;;;14.21;96.82;101213.16;5034278;59;21239;-83
2021/09/01 06:37:26;;;;;;;8.80;3.20;;;;;;;14.42;96.77;101210.59;5034139;59;21788;-82
2021/09/01 06:42:31;;;;;;;5.80;3.93;;;;;;;14.67;96.88;101205.39;5034176;59;21200;-81
2021/09/01 06:47:50;;;;;;;8.07;3.87;;;;;;;14.84;95.48;101203.97;5034131;59;21141;-82
2021/09/01 06:52:57;;;;;;;4.13;3.07;;;;;;;14.92;95.34;101210.84;5090023;57;21174;-84
2021/09/01 06:58:03;;;;;;;6.20;2.93;;;;;;;15.09;95.48;101204.93;5088039;57;21146;-82
2021/09/01 07:03:08;;;;;;;7.30;4.00;;;;;;;15.32;96.07;101213.11;5075776;57;21122;-81
2021/09/01 07:08:21;;;;;;;14.43;2.87;;;;;;;15.65;95.91;101213.36;5067649;57;21646;-83
2021/09/01 07:13:26;;;;;;;6.33;2.47;;;;;;;15.91;94.29;101227.54;5048847;57;21183;-82
2021/09/01 07:18:32;;;;;;;5.53;2.90;;;;;;;16.03;93.67;101223.80;5086360;57;21870;-83
2021/09/01 07:23:37;;;;;;;6.00;2.87;;;;;;;16.22;92.84;101230.98;5100699;57;21261;-82
2021/09/01 07:28:43;;;;;;;5.70;3.33;;;;;;;16.30;91.77;101229.33;5060322;57;21193;-82
2021/09/01 07:33:49;;;;;;;5.87;3.13;;;;;;;16.45;92.50;101238.61;5044642;58;21193;-80
2021/09/01 07:38:54;;;;;;;3.97;3.27;;;;;;;16.62;90.29;101241.58;5043572;58;21278;-81
2021/09/01 07:44:00;;;;;;;4.23;2.63;;;;;;;16.70;89.76;101243.92;5043565;58;21192;-79
2021/09/01 07:49:05;;;;;;;4.63;3.13;;;;;;;16.83;89.10;101244.47;5047899;57;21276;-82
2021/09/01 07:54:11;;;;;;;2.33;2.17;;;;;;;16.94;88.36;101238.16;5082669;57;21186;-83
2021/09/01 07:59:17;;;;;;;9.10;2.93;;;;;;;17.25;87.25;101249.50;5104835;57;21134;-83
2021/09/01 08:04:24;;;;;;;4.00;2.90;;;;;;;17.55;87.92;101251.09;5129648;57;21246;-81
2021/09/01 08:09:30;;;;;;;2.50;2.30;;;;;;;17.63;84.36;101255.70;5129085;57;21826;-83
2021/09/01 08:14:36;;;;;;;3.63;3.00;;;;;;;17.77;84.53;101256.58;5129265;57;21220;-79
2021/09/01 08:19:44;;;;;;;3.03;2.50;;;;;;;17.79;81.11;101255.95;5129510;57;21166;-82
2021/09/01 08:24:50;;;;;;;4.03;2.73;;;;;;;17.82;82.33;101257.84;5123644;57;21265;-80
2021/09/01 08:29:56;;;;;;;5.47;2.90;;;;;;;18.08;82.72;101267.34;5129301;57;21501;-81
2021/09/01 08:35:01;;;;;;;10.90;2.97;;;;;;;18.31;82.43;101274.98;5129120;57;21478;-82
2021/09/01 08:40:09;;;;;;;5.30;2.47;;;;;;;18.34;79.84;101281.35;5129181;57;21213;-81
2021/09/01 08:45:15;;;;;;;4.80;2.80;;;;;;;18.36;80.42;101284.73;5128634;57;22510;-81
2021/09/01 08:50:21;;;;;;;8.67;3.00;;;;;;;18.50;80.08;101290.91;5086416;57;21181;-81
2021/09/01 08:55:26;;;;;;;4.20;3.20;;;;;;;18.64;80.69;101285.58;5123165;57;21182;-81
2021/09/01 09:00:32;;;;;;;4.67;3.00;;;;;;;18.75;79.96;101284.00;5072194;57;22446;-80
2021/09/01 09:05:42;;;;;;;9.57;2.53;;;;;;;19.00;80.91;101287.23;5045506;58;21563;-82
2021/09/01 09:10:49;;;;;;;14.58;3.30;;;;;;;19.16;80.41;101280.66;5044897;58;21204;-81
2021/09/01 09:16:08;;;;;;;6.65;3.33;;;;;;;19.36;78.94;101297.91;5056531;57;21294;-82
2021/09/01 09:21:22;;;;;;;4.25;2.67;;;;;;;19.29;76.50;101291.82;5111439;57;21178;-80
2021/09/01 09:26:33;;;;;;;3.27;2.98;;;;;;;19.08;75.01;101308.77;5129148;57;21177;-81
2021/09/01 09:31:43;;;;;;;5.33;2.67;;;;;;;18.80;75.07;101313.34;5087384;57;21228;-81
2021/09/01 09:37:13;;;;;;;4.28;2.67;;;;;;;18.67;74.60;101306.19;5129263;57;21481;-81
2021/09/01 09:42:41;;;;;;;2.95;2.60;;;;;;;18.73;75.81;101296.71;5129822;57;21114;-81
2021/09/01 09:47:50;;;;;;;3.35;2.02;;;;;;;18.89;76.17;101299.05;5111167;57;21178;-81
2021/09/01 09:52:57;;;;;;;4.62;2.80;;;;;;;19.11;72.31;101291.00;5091385;57;21864;-82
2021/09/01 09:58:03;;;;;;;2.72;1.87;;;;;;;19.12;74.04;101298.05;5061612;57;22384;-82
2021/09/01 10:03:08;;;;;;;6.83;3.25;;;;;;;19.12;73.87;101311.95;5129794;57;21210;-82
2021/09/01 10:08:15;;;;;;;3.62;2.40;;;;;;;19.22;75.19;101314.91;5117618;57;21129;-80
2021/09/01 10:13:22;;;;;;;4.08;2.47;;;;;;;19.53;74.92;101318.52;5122562;57;21134;-82
2021/09/01 10:18:29;;;;;;;3.50;2.60;;;;;;;19.71;74.58;101313.11;5129368;57;21189;-80
2021/09/01 10:23:42;;;;;;;4.47;2.83;;;;;;;19.82;71.27;101315.51;5103603;57;21195;-79
2021/09/01 10:28:48;;;;;;;8.93;2.98;;;;;;;19.81;72.55;101321.37;5165408;57;21112;-80
2021/09/01 10:34:04;;;;;;;2.55;2.35;;;;;;;19.97;73.17;101321.47;5165089;57;21215;-80
2021/09/01 10:39:32;;;;;;;4.47;2.33;;;;;;;20.01;69.42;101323.34;5125390;57;21195;-81
2021/09/01 10:44:43;;;;;;;3.27;2.33;;;;;;;19.96;70.51;101320.28;5165516;57;21173;-80
2021/09/01 10:50:02;;;;;;;3.37;2.62;;;;;;;20.02;68.16;101341.94;5165283;57;21268;-80
2021/09/01 10:55:09;;;;;;;6.47;2.98;;;;;;;20.02;69.11;101344.63;5165057;57;21183;-80
2021/09/01 11:00:18;;;;;;;3.37;2.92;;;;;;;20.10;70.47;101337.12;5095742;57;21600;-80
2021/09/01 11:05:26;;;;;;;3.95;3.42;;;;;;;20.32;71.30;101333.84;5117383;57;21251;-80
2021/09/01 11:10:32;;;;;;;5.10;3.90;;;;;;;20.35;69.67;101324.63;5081193;58;21547;-81
2021/09/01 11:15:45;;;;;;;2.72;2.52;;;;;;;20.54;68.83;101335.14;5117369;57;21218;-81
2021/09/01 11:20:54;;;;;;;6.67;3.02;;;;;;;20.56;66.36;101341.19;5147987;57;21175;-80
2021/09/01 11:26:04;;;;;;;3.25;2.75;;;;;;;20.74;67.70;101341.58;5168016;57;21149;-80
2021/09/01 11:31:23;;;;;;;5.12;3.35;;;;;;;20.73;67.41;101342.58;5172051;57;21229;-80
2021/09/01 11:36:31;;;;;;;2.60;2.40;;;;;;;20.94;68.97;101342.93;5177456;57;21157;-79
2021/09/01 11:41:37;;;;;;;3.22;2.87;;;;;;;21.22;67.81;101344.36;5207534;57;22101;-80
2021/09/01 11:46:43;;;;;;;2.90;2.27;;;;;;;21.49;68.14;101344.50;5194346;57;21137;-81
2021/09/01 11:51:50;;;;;;;4.42;2.12;;;;;;;21.10;65.02;101352.36;5186519;57;21193;-80
2021/09/01 11:56:55;;;;;;;2.85;2.35;;;;;;;20.80;65.96;101339.55;5196056;57;21202;-81
2021/09/01 12:02:02;;;;;;;2.60;1.90;;;;;;;20.56;64.92;101349.26;5112611;57;21766;-80
2021/09/01 12:07:08;;;;;;;3.00;2.42;;;;;;;20.34;65.28;101352.49;5138748;57;21830;-81
2021/09/01 12:12:15;;;;;;;4.60;2.33;;;;;;;20.12;65.85;101354.43;5147345;57;22536;-81
2021/09/01 12:17:25;;;;;;;2.98;2.40;;;;;;;20.23;68.07;101346.92;5113872;58;21196;-80
2021/09/01 12:22:37;;;;;;;4.55;2.15;;;;;;;20.48;68.45;101354.59;5111119;58;21243;-80
2021/09/01 12:28:09;;;;;;;4.12;2.55;;;;;;;20.47;66.25;101356.13;5081253;58;21448;-80
2021/09/01 12:33:20;;;;;;;3.67;2.40;;;;;;;20.38;67.20;101367.33;5088052;57;21300;-79
2021/09/01 12:38:27;;;;;;;4.12;2.62;;;;;;;20.66;67.80;101362.55;5120196;57;21206;-82
2021/09/01 12:43:40;;;;;;;1.62;1.52;;;;;;;20.84;66.51;101364.61;5121069;57;21127;-81
2021/09/01 12:48:46;;;;;;;3.12;2.10;;;;;;;20.87;66.95;101366.13;5125502;57;21198;-80
2021/09/01 12:53:52;;;;;;;2.58;1.65;;;;;;;20.81;66.49;101372.16;5164873;57;21124;-81
2021/09/01 12:58:57;;;;;;;3.27;1.98;;;;;;;20.72;66.83;101374.00;5134959;57;21469;-82
2021/09/01 13:04:03;;;;;;;6.53;1.80;;;;;;;20.65;67.22;101376.48;5097822;57;22377;-81
2021/09/01 13:09:08;;;;;;;5.53;3.12;;;;;;;20.66;67.59;101376.83;5042960;58;21233;-81
2021/09/01 13:14:14;;;;;;;2.22;2.02;;;;;;;20.66;67.48;101384.05;5080301;58;21217;-81
2021/09/01 13:19:20;;;;;;;2.67;1.95;;;;;;;20.62;67.25;101384.06;5081675;58;22415;-82
2021/09/01 13:24:26;;;;;;;2.02;1.82;;;;;;;20.61;67.42;101375.66;5100521;57;21173;-82
2021/09/01 13:29:32;;;;;;;2.35;2.08;;;;;;;20.62;67.48;101378.69;5180592;57;21194;-81
2021/09/01 13:34:38;;;;;;;2.15;2.02;;;;;;;20.51;67.48;101375.77;5183075;57;21559;-80
2021/09/01 13:39:43;;;;;;;3.30;1.95;;;;;;;20.54;67.98;101375.45;5132531;57;21203;-82
2021/09/01 13:44:49;;;;;;;2.90;1.92;;;;;;;20.57;67.60;101364.88;5182333;57;21255;-80
2021/09/01 13:49:54;;;;;;;6.20;1.67;;;;;;;20.57;67.28;101367.06;5199514;57;21460;-83
2021/09/01 13:55:00;;;;;;;2.30;2.10;;;;;;;20.52;67.09;101365.36;5199573;56;21146;-84
2021/09/01 14:00:07;;;;;;;2.72;1.80;;;;;;;20.47;66.87;101354.78;5149154;56;21816;-83
2021/09/01 14:05:15;;;;;;;6.30;2.40;;;;;;;20.36;67.42;101359.42;5112608;58;21255;-84
2021/09/01 14:10:21;;;;;;;3.02;2.37;;;;;;;20.36;67.63;101362.61;5113164;58;21192;-83
2021/09/01 14:15:26;;;;;;;3.37;2.52;;;;;;;20.30;67.27;101352.00;5128471;57;21265;-82
2021/09/01 14:20:32;;;;;;;3.85;2.70;;;;;;;20.23;67.95;101350.95;5156980;57;21262;-83
2021/09/01 14:25:38;;;;;;;7.95;2.80;;;;;;;20.24;67.97;101350.45;5129684;57;21894;-84
2021/09/01 14:30:44;;;;;;;3.92;2.65;;;;;;;20.24;67.84;101347.27;5116367;57;21284;-84
2021/09/01 14:35:49;;;;;;;5.92;3.60;;;;;;;20.32;67.99;101341.06;5127820;57;21663;-84
2021/09/01 14:40:55;;;;;;;5.33;2.67;;;;;;;20.41;68.71;101339.30;5129770;57;21217;-84
2021/09/01 14:46:03;;;;;;;3.02;2.17;;;;;;;20.63;68.68;101338.17;5101381;57;21197;-84
2021/09/01 14:51:09;;;;;;;3.10;2.45;;;;;;;20.66;67.31;101330.29;5087371;57;22429;-83
2021/09/01 14:56:14;;;;;;;6.03;2.50;;;;;;;20.56;66.11;101330.45;5081968;57;21232;-84
2021/09/01 15:01:20;;;;;;;3.30;2.58;;;;;;;20.41;66.35;101328.05;5111760;58;21198;-84
2021/09/01 15:06:26;;;;;;;7.10;3.50;;;;;;;20.40;66.56;101322.83;5084189;57;21251;-85
2021/09/01 15:11:32;;;;;;;3.60;3.15;;;;;;;20.41;66.57;101319.98;5047695;58;21193;-84
2021/09/01 15:16:38;;;;;;;4.78;3.40;;;;;;;20.47;66.60;101313.12;5047972;58;21228;-84
2021/09/01 15:21:44;;;;;;;2.37;2.13;;;;;;;20.50;64.85;101312.77;5046983;58;21281;-84
2021/09/01 15:26:49;;;;;;;2.25;2.05;;;;;;;20.53;65.23;101315.14;5063299;58;21127;-84
2021/09/01 15:31:55;;;;;;;2.15;1.95;;;;;;;20.56;65.87;101310.29;5081485;58;21210;-84
2021/09/01 15:37:04;;;;;;;6.30;2.08;;;;;;;20.71;65.70;101297.88;5081463;58;21180;-83
2021/09/01 15:42:17;;;;;;;2.10;1.90;;;;;;;20.76;65.01;101297.39;5088812;57;21183;-81
2021/09/01 15:47:27;;;;;;;3.08;1.98;;;;;;;20.81;65.61;101289.65;5123666;57;21177;-83
2021/09/01 15:52:34;;;;;;;3.30;1.37;;;;;;;20.85;65.19;101292.35;5128391;57;21270;-83
2021/09/01 15:57:40;;;;;;;1.45;1.35;;;;;;;20.75;63.74;101288.98;5123298;57;21675;-83
2021/09/01 16:02:47;;;;;;;1.30;1.27;;;;;;;20.61;63.84;101296.36;5110675;57;21545;-83
2021/09/01 16:07:53;;;;;;;8.85;1.60;;;;;;;20.50;64.03;101289.44;5125363;57;21179;-84
2021/09/01 16:13:00;;;;;;;1.70;1.57;;;;;;;20.42;63.87;101296.14;5163765;57;21173;-85
2021/09/01 16:18:22;;;;;;;1.67;1.37;;;;;;;20.37;64.23;101290.41;5107994;57;22465;-84
2021/09/01 16:23:29;;;;;;;8.73;7.73;;;;;;;20.34;64.46;101283.98;5121894;56;21127;-85
2021/09/01 16:28:38;;;;;;;5.10;4.47;;;;;;;20.41;64.92;101280.19;5098395;57;21193;-89
2021/09/01 16:33:44;;;;;;;4.67;1.82;;;;;;;20.51;65.47;101276.34;5069561;57;21603;-88
2021/09/01 16:38:52;;;;;;;3.83;2.20;;;;;;;20.52;64.44;101274.48;5093158;57;21287;-88
2021/09/01 16:44:02;;;;;;;2.05;1.95;;;;;;;20.55;64.80;101285.76;5091170;57;21612;-88
2021/09/01 16:49:08;;;;;;;3.92;3.45;;;;;;;20.57;65.08;101286.44;5060619;57;21238;-88
2021/09/01 16:54:15;;;;;;;2.33;2.12;;;;;;;20.60;64.96;101292.83;5097596;57;21198;-90
2021/09/01 16:59:28;;;;;;;2.87;2.05;;;;;;;20.57;63.55;101285.59;5085031;57;21132;-89
2021/09/01 17:04:36;;;;;;;4.55;4.12;;;;;;;20.43;62.98;101284.90;5153393;57;21306;-89
2021/09/01 17:09:45;;;;;;;3.42;1.30;;;;;;;20.33;63.94;101284.48;5148365;57;21547;-88
2021/09/01 17:14:52;;;;;;;1.45;1.10;;;;;;;20.15;62.05;101289.66;5039086;57;22223;-88
2021/09/01 17:20:00;;;;;;;1.32;1.22;;;;;;;19.99;63.21;101293.95;5097339;57;21153;-90
2021/09/01 17:25:07;;;;;;;2.15;1.87;;;;;;;19.90;62.97;101302.95;5078876;57;21273;-89
2021/09/01 17:30:17;;;;;;;3.17;2.87;;;;;;;19.76;63.20;101313.45;5064651;57;21201;-88
2021/09/01 17:35:24;;;;;;;2.55;2.35;;;;;;;19.59;63.47;101315.19;5070293;57;21142;-90
2021/09/01 17:40:30;;;;;;;2.42;1.77;;;;;;;19.49;63.67;101314.44;5138798;57;21256;-89
2021/09/01 17:45:37;;;;;;;1.80;1.70;;;;;;;19.42;64.14;101310.68;5139440;57;21129;-88
2021/09/01 17:50:51;;;;;;;4.67;1.77;;;;;;;19.36;64.22;101313.51;5081563;57;21201;-88
2021/09/01 17:55:57;;;;;;;1.90;1.80;;;;;;;19.36;64.84;101323.39;5152874;57;21229;-87
2021/09/01 18:01:05;;;;;;;4.08;3.02;;;;;;;19.35;64.69;101329.26;5149767;57;21130;-91
2021/09/01 18:06:11;;;;;;;6.00;4.40;;;;;;;19.25;64.67;101332.51;5154547;57;21230;-86
2021/09/01 18:11:17;;;;;;;8.55;5.65;;;;;;;19.17;65.34;101340.00;5154613;57;21189;-89
2021/09/01 18:16:23;;;;;;;9.05;5.75;;;;;;;19.19;65.40;101339.36;5154087;57;21208;-90
2021/09/01 18:21:29;;;;;;;4.62;4.15;;;;;;;19.12;65.34;101334.75;5145038;57;21201;-92
2021/09/01 18:26:36;;;;;;;5.90;4.72;;;;;;;19.05;65.01;101344.42;5116602;57;21156;-89
2021/09/01 18:31:42;;;;;;;4.33;3.70;;;;;;;18.96;65.43;101348.84;5092685;57;21172;-88
2021/09/01 18:36:47;;;;;;;8.35;5.15;;;;;;;18.81;65.17;101349.03;5100797;57;22127;-91
2021/09/01 18:41:58;;;;;;;5.45;4.45;;;;;;;18.67;65.41;101352.23;5111429;57;22147;-92
2021/09/01 18:47:04;;;;;;;7.12;4.40;;;;;;;18.59;66.10;101359.21;5106880;57;21107;-87
2021/09/01 18:52:12;;;;;;;10.38;6.17;;;;;;;18.62;66.74;101355.39;5122170;57;21523;-88
2021/09/01 18:57:18;;;;;;;17.67;10.93;;;;;;;18.62;66.71;101360.75;5132308;57;21162;-87
2021/09/01 19:02:27;;;;;;;20.45;15.50;;;;;;;18.51;66.99;101367.59;5064047;57;21178;-87
2021/09/01 19:07:37;;;;;;;16.02;10.13;;;;;;;18.53;67.25;101367.80;5135023;57;21446;-88
2021/09/01 19:12:53;;;;;;;14.87;11.48;;;;;;;18.49;67.52;101368.24;5138682;57;21169;-87
2021/09/01 19:18:02;;;;;;;22.00;11.25;;;;;;;18.48;67.60;101368.77;5138769;57;21114;-87
2021/09/01 19:23:09;;;;;;;13.15;9.75;;;;;;;18.35;67.32;101360.70;4985396;59;21478;-83
2021/09/01 19:28:18;;;;;;;8.03;6.70;;;;;;;18.32;67.91;101364.55;4987087;58;21114;-83
2021/09/01 19:33:28;;;;;;;13.65;8.65;;;;;;;18.26;67.80;101359.28;5008561;59;21226;-85
2021/09/01 19:38:35;;;;;;;8.38;5.00;;;;;;;18.27;68.46;101366.82;4982797;58;21383;-84
2021/09/01 19:43:41;;;;;;;11.85;8.15;;;;;;;18.16;67.98;101363.85;4984295;59;21181;-84
2021/09/01 19:48:48;;;;;;;4.07;3.03;;;;;;;18.00;68.05;101376.17;5088943;57;21666;-85
2021/09/01 19:53:57;;;;;;;4.35;3.08;;;;;;;17.84;67.92;101377.62;5094324;57;21176;-85
2021/09/01 19:59:05;;;;;;;10.38;3.52;;;;;;;17.64;68.21;101384.48;5090735;57;21160;-85
2021/09/01 20:04:14;;;;;;;6.70;4.10;;;;;;;17.49;68.47;101387.58;5077736;57;21190;-84
2021/09/01 20:09:20;;;;;;;7.27;4.13;;;;;;;17.39;68.96;101396.60;5060583;57;21639;-84
2021/09/01 20:14:27;;;;;;;4.03;3.50;;;;;;;17.33;69.12;101400.67;5055020;58;21757;-85
2021/09/01 20:19:35;;;;;;;9.97;4.00;;;;;;;17.32;69.24;101396.31;5055100;58;22203;-85
2021/09/01 20:24:43;;;;;;;8.60;4.57;;;;;;;17.34;70.04;101398.36;5093883;57;21547;-86
2021/09/01 20:29:48;;;;;;;10.23;4.80;;;;;;;17.45;70.65;101401.37;5104128;57;21085;-86
2021/09/01 20:34:55;;;;;;;7.37;4.40;;;;;;;17.50;70.85;101407.14;5106451;57;22128;-86
2021/09/01 20:40:03;;;;;;;10.63;5.03;;;;;;;17.46;70.90;101406.58;5103681;57;21168;-86
2021/09/01 20:45:11;;;;;;;5.43;4.50;;;;;;;17.37;70.82;101406.10;5102329;57;21110;-84
2021/09/01 20:50:17;;;;;;;6.40;4.00;;;;;;;17.36;71.09;101416.45;5097698;57;21208;-85
2021/09/01 20:55:26;;;;;;;6.30;4.50;;;;;;;17.37;71.07;101415.46;5104413;57;21140;-86
2021/09/01 21:00:32;;;;;;;14.13;5.03;;;;;;;17.38;71.13;101429.19;5100281;57;21655;-85
2021/09/01 21:05:39;;;;;;;6.73;4.20;;;;;;;17.38;71.34;101422.99;5103353;57;21098;-86
2021/09/01 21:10:45;;;;;;;9.23;4.43;;;;;;;17.35;71.39;101433.47;5106909;57;21204;-85
2021/09/01 21:16:04;;;;;;;9.70;4.43;;;;;;;17.11;70.60;101432.52;5106627;57;21198;-86
2021/09/01 21:21:15;;;;;;;7.93;4.67;;;;;;;16.92;70.95;101432.52;5106534;57;21205;-86
2021/09/01 21:26:24;;;;;;;9.67;4.93;;;;;;;16.81;71.40;101437.46;5104537;57;21129;-87
2021/09/01 21:31:34;;;;;;;10.97;5.03;;;;;;;16.78;72.00;101435.09;5108791;57;22207;-87
2021/09/01 21:36:40;;;;;;;12.37;4.87;;;;;;;16.79;71.91;101433.27;5105443;57;21107;-87
2021/09/01 21:41:46;;;;;;;13.83;5.73;;;;;;;16.68;71.45;101442.70;5067811;57;21162;-87
2021/09/01 21:46:53;;;;;;;13.00;5.13;;;;;;;16.47;71.55;101438.26;5065167;58;21158;-87
2021/09/01 21:51:58;;;;;;;12.20;5.07;;;;;;;16.25;71.75;101442.92;5065122;58;21114;-87
2021/09/01 21:57:06;;;;;;;8.37;4.60;;;;;;;16.07;72.20;101449.35;5065252;58;21176;-87
2021/09/01 22:02:12;;;;;;;13.90;5.67;;;;;;;15.85;72.54;101447.69;5042666;59;22201;-87
2021/09/01 22:07:18;;;;;;;8.93;4.63;;;;;;;15.88;73.47;101450.59;5042705;59;21244;-87
2021/09/01 22:12:24;;;;;;;14.80;5.60;;;;;;;16.02;74.02;101456.44;5042606;59;21555;-87
2021/09/01 22:17:30;;;;;;;12.00;5.27;;;;;;;16.14;74.32;101450.04;5042610;59;21164;-85
2021/09/01 22:22:37;;;;;;;13.37;4.77;;;;;;;16.24;74.27;101455.91;5042699;58;21164;-85
2021/09/01 22:27:43;;;;;;;13.83;5.07;;;;;;;16.16;73.48;101460.59;5033767;59;21203;-85
2021/09/01 22:32:49;;;;;;;12.03;4.97;;;;;;;15.98;73.32;101463.00;5032127;58;21574;-84
2021/09/01 22:37:55;;;;;;;8.30;4.17;;;;;;;15.79;73.34;101470.87;5032037;59;21277;-84
2021/09/01 22:43:00;;;;;;;11.50;5.30;;;;;;;15.67;73.54;101483.42;5031778;59;21208;-85
2021/09/01 22:48:08;;;;;;;11.17;5.23;;;;;;;15.54;73.93;101483.21;5031798;59;21668;-85
2021/09/01 22:53:14;;;;;;;15.60;4.87;;;;;;;15.43;74.19;101482.26;5032083;59;21383;-85
2021/09/01 22:58:19;;;;;;;8.87;4.53;;;;;;;15.30;74.38;101479.40;5053325;58;21143;-86
2021/09/01 23:03:25;;;;;;;9.30;4.97;;;;;;;15.18;74.66;101479.08;5122384;58;21560;-86
2021/09/01 23:08:31;;;;;;;10.43;4.80;;;;;;;15.08;74.87;101474.52;5122583;58;21464;-86
2021/09/01 23:13:36;;;;;;;8.30;4.20;;;;;;;15.04;75.20;101477.54;5123481;58;21278;-86
2021/09/01 23:18:42;;;;;;;11.00;4.37;;;;;;;15.16;75.97;101479.69;5132365;58;21613;-86
2021/09/01 23:23:48;;;;;;;8.63;4.70;;;;;;;15.27;76.06;101484.52;5133831;58;21171;-86
2021/09/01 23:28:53;;;;;;;12.13;4.50;;;;;;;15.34;76.03;101480.84;5133841;58;22054;-86
2021/09/01 23:33:59;;;;;;;11.33;4.83;;;;;;;15.37;75.82;101487.27;5133594;57;21187;-86
2021/09/01 23:39:05;;;;;;;15.67;5.27;;;;;;;15.41;75.67;101490.05;5133580;58;21653;-86
2021/09/01 23:44:11;;;;;;;10.33;4.33;;;;;;;15.44;75.67;101484.44;5133645;58;21206;-85
2021/09/01 23:49:17;;;;;;;7.40;4.90;;;;;;;15.45;75.75;101490.98;5133495;58;22099;-87